Time;durP1;ratioP1;P1;durP2;ratioP2;P2;SDS_P1;SDS_P2;PMS_P1;PMS_P2;Temp;Humidity;BMP_temperature;BMP_pressure;BME280_temperature;BME280_humidity;BME280_pressure;Samples;Min_cycle;Max_cycle;Signal;HPM_P1;HPM_P2
2021/12/04 00:01:10;;;;;;;7.33;7.03;;;4.50;99.90;;;;;;5013311;28;20183;-63
2021/12/04 00:03:41;;;;;;;7.43;6.90;;;4.50;99.90;;;;;;5013380;28;20176;-63
2021/12/04 00:06:17;;;;;;;7.57;7.20;;;4.50;99.90;;;;;;5033119;28;20171;-63
2021/12/04 00:08:45;;;;;;;7.00;6.70;;;4.50;99.90;;;;;;5031953;28;20175;-63
2021/12/04 00:11:11;;;;;;;7.17;6.87;;;4.50;99.90;;;;;;5013161;28;20522;-63
2021/12/04 00:13:37;;;;;;;7.20;6.87;;;4.50;99.90;;;;;;5012878;28;20200;-63
2021/12/04 00:16:03;;;;;;;7.17;6.80;;;4.50;99.90;;;;;;5031744;28;20313;-63
2021/12/04 00:18:29;;;;;;;7.57;7.20;;;4.50;99.90;;;;;;5032992;28;20179;-63
2021/12/04 00:20:54;;;;;;;7.30;7.00;;;4.60;99.90;;;;;;5014794;28;20180;-63
2021/12/04 00:23:20;;;;;;;7.73;7.33;;;4.60;99.90;;;;;;5025789;28;20195;-63
2021/12/04 00:25:45;;;;;;;7.90;7.50;;;4.60;99.90;;;;;;5032691;28;20203;-63
2021/12/04 00:28:11;;;;;;;7.30;7.00;;;4.60;99.90;;;;;;5020914;28;20437;-63
2021/12/04 00:30:37;;;;;;;7.67;7.37;;;4.60;99.90;;;;;;5012999;28;20684;-63
2021/12/04 00:33:10;;;;;;;8.07;7.60;;;4.60;99.90;;;;;;5022188;28;20234;-63
2021/12/04 00:35:58;;;;;;;7.80;7.40;;;4.60;99.90;;;;;;5032536;28;20244;-63
2021/12/04 00:49:18;;;;;;;9.60;9.20;;;4.70;99.90;;;;;;5013971;28;20621;-63
2021/12/04 00:51:54;;;;;;;8.80;8.40;;;4.70;99.90;;;;;;5026385;28;20178;-64
2021/12/04 00:54:23;;;;;;;7.80;7.50;;;4.70;99.90;;;;;;5032181;28;20214;-63
2021/12/04 00:56:50;;;;;;;7.30;7.00;;;4.80;99.90;;;;;;5017581;28;20191;-64
2021/12/04 00:59:16;;;;;;;7.13;6.83;;;4.80;99.90;;;;;;5012429;28;20175;-66
2021/12/04 01:01:42;;;;;;;7.43;7.03;;;4.80;99.90;;;;;;5024952;28;20198;-63
2021/12/04 01:04:13;;;;;;;7.23;6.83;;;4.80;99.90;;;;;;5030537;28;20195;-63
2021/12/04 01:06:39;;;;;;;6.97;6.67;;;4.80;99.90;;;;;;5020123;28;20489;-62
2021/12/04 01:09:10;;;;;;;7.20;6.80;;;4.90;99.90;;;;;;5012121;28;20535;-62
2021/12/04 01:11:38;;;;;;;7.37;7.07;;;4.90;99.90;;;;;;5022995;28;20262;-63
2021/12/04 01:14:05;;;;;;;7.13;6.73;;;4.90;99.90;;;;;;5031415;28;20715;-63
2021/12/04 01:16:31;;;;;;;6.97;6.67;;;4.90;99.90;;;;;;5016248;28;20176;-62
2021/12/04 01:18:56;;;;;;;7.63;7.07;;;4.90;99.90;;;;;;5021303;28;20229;-62
2021/12/04 01:21:22;;;;;;;7.17;6.87;;;5.00;99.90;;;;;;5031703;28;20217;-63
2021/12/04 01:23:47;;;;;;;7.13;6.83;;;5.00;99.90;;;;;;5023582;28;20270;-63
2021/12/04 01:26:13;;;;;;;7.10;6.70;;;5.00;99.90;;;;;;5012082;28;20255;-62
2021/12/04 01:28:39;;;;;;;7.27;6.97;;;5.00;99.90;;;;;;5016981;28;20187;-63
2021/12/04 01:31:04;;;;;;;6.83;6.53;;;5.00;99.90;;;;;;5031568;28;20175;-62
2021/12/04 01:33:30;;;;;;;6.97;6.67;;;5.00;99.90;;;;;;5027423;28;20229;-62
2021/12/04 01:35:56;;;;;;;7.00;6.70;;;5.10;99.90;;;;;;5011761;28;20689;-63
2021/12/04 01:38:22;;;;;;;7.10;6.80;;;5.10;99.90;;;;;;5013091;28;20178;-63
2021/12/04 01:40:48;;;;;;;7.07;6.77;;;5.10;99.90;;;;;;5023250;28;20176;-64
2021/12/04 01:43:14;;;;;;;7.20;6.60;;;5.00;99.90;;;;;;5011681;28;20172;-63
2021/12/04 01:45:39;;;;;;;7.07;6.77;;;5.00;99.90;;;;;;5012626;28;20203;-63
2021/12/04 01:48:05;;;;;;;6.97;6.60;;;5.00;99.90;;;;;;5031461;28;20171;-63
2021/12/04 01:50:33;;;;;;;7.27;6.97;;;5.00;99.90;;;;;;5031555;28;20653;-63
2021/12/04 01:52:59;;;;;;;7.43;7.07;;;5.00;99.90;;;;;;5013916;28;20583;-64
2021/12/04 01:55:30;;;;;;;7.37;6.97;;;5.00;99.90;;;;;;5011634;28;20214;-63
2021/12/04 01:57:57;;;;;;;6.93;6.63;;;4.90;99.90;;;;;;5029503;28;20262;-63
2021/12/04 02:00:23;;;;;;;7.30;7.00;;;4.90;99.90;;;;;;5031578;28;20164;-63
2021/12/04 02:02:49;;;;;;;7.00;6.70;;;4.90;99.90;;;;;;5014308;28;20249;-64
2021/12/04 02:05:14;;;;;;;7.00;6.70;;;4.90;99.90;;;;;;5011515;28;20203;-62
2021/12/04 02:07:40;;;;;;;7.07;6.77;;;4.90;99.90;;;;;;5025972;28;20205;-63
2021/12/04 02:10:07;;;;;;;7.43;7.10;;;4.80;99.90;;;;;;5031334;28;20645;-64
2021/12/04 02:12:32;;;;;;;7.40;6.90;;;4.80;99.90;;;;;;5017852;28;20292;-63
2021/12/04 02:14:58;;;;;;;7.03;6.70;;;4.80;99.90;;;;;;5020580;28;20289;-64
2021/12/04 02:17:24;;;;;;;6.90;6.50;;;4.80;99.90;;;;;;5031137;28;20171;-64
2021/12/04 02:19:49;;;;;;;7.40;7.00;;;4.80;99.90;;;;;;5023502;28;20214;-64
2021/12/04 02:22:16;;;;;;;8.67;8.27;;;4.70;99.90;;;;;;5011175;28;20177;-63
2021/12/04 02:24:42;;;;;;;8.33;7.93;;;4.70;99.90;;;;;;5016860;28;20688;-63
2021/12/04 02:27:09;;;;;;;8.10;7.70;;;4.70;99.90;;;;;;5030988;28;20167;-64
2021/12/04 02:29:34;;;;;;;8.23;7.83;;;4.70;99.90;;;;;;5027169;28;20252;-60
2021/12/04 02:32:01;;;;;;;8.20;7.67;;;4.60;99.90;;;;;;5011182;28;20176;-63
2021/12/04 02:34:29;;;;;;;7.57;7.17;;;4.60;99.90;;;;;;5013825;28;20267;-64
2021/12/04 02:36:57;;;;;;;8.17;7.67;;;4.60;99.90;;;;;;5031310;28;20180;-64
2021/12/04 02:39:27;;;;;;;7.93;7.53;;;4.60;99.90;;;;;;5031556;28;20180;-65
2021/12/04 02:41:54;;;;;;;7.20;6.80;;;4.60;99.90;;;;;;5015319;28;20254;-65
2021/12/04 02:44:20;;;;;;;8.10;7.60;;;4.60;99.90;;;;;;5032585;28;20688;-64
2021/12/04 02:46:45;;;;;;;7.73;7.13;;;4.60;99.90;;;;;;5034657;28;20178;-64
2021/12/04 02:49:13;;;;;;;9.20;8.80;;;4.60;99.90;;;;;;5018116;28;20180;-65
2021/12/04 02:51:39;;;;;;;8.37;7.97;;;4.60;99.90;;;;;;5015861;28;20176;-64
2021/12/04 02:54:06;;;;;;;8.60;8.20;;;4.60;99.90;;;;;;5014418;28;20239;-65
2021/12/04 02:56:32;;;;;;;7.93;7.53;;;4.60;99.90;;;;;;5017180;28;20178;-64
2021/12/04 02:59:02;;;;;;;8.17;7.77;;;4.60;99.90;;;;;;5034366;28;20179;-65
2021/12/04 03:01:28;;;;;;;8.23;7.63;;;4.60;99.90;;;;;;5030543;28;20587;-65
2021/12/04 03:04:08;;;;;;;8.47;7.97;;;4.50;99.90;;;;;;5014253;28;20601;-65
2021/12/04 03:06:42;;;;;;;8.40;8.00;;;4.50;99.90;;;;;;5016047;28;20176;-65
2021/12/04 03:09:08;;;;;;;7.97;7.47;;;4.50;99.90;;;;;;5034226;28;20210;-65
2021/12/04 03:11:34;;;;;;;7.43;7.03;;;4.50;99.90;;;;;;5024648;28;20661;-65
2021/12/04 03:14:00;;;;;;;8.43;7.97;;;4.50;99.90;;;;;;5014172;28;20303;-65
2021/12/04 03:16:26;;;;;;;7.93;7.53;;;4.50;99.90;;;;;;4994771;28;20260;-65
2021/12/04 03:18:51;;;;;;;7.63;7.23;;;4.50;99.90;;;;;;4994938;28;20567;-65
2021/12/04 03:21:17;;;;;;;8.00;7.60;;;4.50;99.90;;;;;;5031006;28;20172;-65
2021/12/04 03:23:58;;;;;;;7.30;6.90;;;4.50;99.90;;;;;;5033610;28;20179;-64
2021/12/04 03:26:25;;;;;;;7.70;7.30;;;4.50;99.90;;;;;;5015321;28;20180;-65
2021/12/04 03:28:52;;;;;;;8.50;8.10;;;4.50;99.90;;;;;;5014045;28;20184;-65
2021/12/04 03:31:50;;;;;;;8.20;7.80;;;4.50;99.90;;;;;;5030661;28;20659;-65
2021/12/04 03:42:26;;;;;;;8.23;7.83;;;4.50;99.90;;;;;;5033517;28;20266;-63
2021/12/04 03:44:51;;;;;;;8.47;7.97;;;4.50;99.90;;;;;;5030238;28;20326;-64
2021/12/04 03:47:19;;;;;;;8.00;7.60;;;4.50;99.90;;;;;;5013725;28;20196;-65
2021/12/04 03:49:45;;;;;;;7.90;7.50;;;4.50;99.90;;;;;;5014926;28;20310;-64
2021/12/04 03:52:11;;;;;;;8.07;7.67;;;4.50;99.90;;;;;;5032638;28;20696;-65
2021/12/04 03:54:37;;;;;;;8.77;8.27;;;4.50;99.90;;;;;;5031909;28;20337;-64
2021/12/04 03:57:04;;;;;;;8.50;8.00;;;4.50;99.90;;;;;;5013757;28;20183;-64
2021/12/04 03:59:35;;;;;;;8.10;7.60;;;4.50;99.90;;;;;;5013635;28;20745;-65
2021/12/04 04:02:00;;;;;;;8.30;7.80;;;4.60;99.90;;;;;;5031659;28;20641;-64
2021/12/04 04:04:26;;;;;;;7.70;7.20;;;4.50;99.90;;;;;;5017777;28;20211;-63
2021/12/04 04:06:52;;;;;;;8.33;7.63;;;4.50;99.90;;;;;;5013536;28;20606;-64
2021/12/04 04:09:18;;;;;;;8.27;7.80;;;4.50;99.90;;;;;;5026068;28;20187;-64
2021/12/04 04:11:44;;;;;;;8.23;7.73;;;4.50;99.90;;;;;;5032976;28;20282;-64
2021/12/04 04:14:09;;;;;;;8.67;8.17;;;4.50;99.90;;;;;;5021241;28;20632;-64
2021/12/04 04:16:39;;;;;;;8.83;8.23;;;4.50;99.90;;;;;;5013276;28;20263;-65
2021/12/04 04:19:05;;;;;;;8.73;8.03;;;4.60;99.90;;;;;;5022804;28;20182;-65
2021/12/04 04:21:31;;;;;;;8.53;8.03;;;4.60;99.90;;;;;;5032849;28;20195;-64
2021/12/04 04:23:57;;;;;;;8.30;7.80;;;4.60;99.90;;;;;;5024146;28;20551;-64
2021/12/04 04:26:22;;;;;;;8.93;8.33;;;4.60;99.90;;;;;;5013190;28;20271;-64
2021/12/04 04:28:48;;;;;;;8.33;7.83;;;4.60;99.90;;;;;;5027926;28;20267;-64
2021/12/04 04:31:14;;;;;;;8.00;7.57;;;4.50;99.90;;;;;;5029639;28;20242;-64
2021/12/04 04:33:43;;;;;;;8.50;7.90;;;4.50;99.90;;;;;;5012505;28;20204;-64
2021/12/04 04:36:31;;;;;;;8.43;7.83;;;4.50;99.90;;;;;;5014056;28;20194;-64
2021/12/04 05:10:16;;;;;;;8.90;8.40;;;4.40;99.90;;;;;;5011423;28;20278;-63
2021/12/04 05:11:38;;;;;;;7.93;7.43;;;4.40;99.90;;;;;;5014601;28;20693;-64
2021/12/04 05:14:05;;;;;;;8.60;8.00;;;4.40;99.90;;;;;;5022446;28;20436;-64
2021/12/04 05:16:42;;;;;;;9.07;8.43;;;4.40;99.90;;;;;;5017786;28;20246;-65
2021/12/04 05:19:26;;;;;;;8.60;8.00;;;4.50;99.90;;;;;;5021763;28;20179;-65
2021/12/04 05:21:52;;;;;;;9.13;8.53;;;4.50;99.90;;;;;;5031757;28;20183;-64
2021/12/04 05:24:18;;;;;;;8.07;7.47;;;4.50;99.90;;;;;;5020191;28;20215;-64
2021/12/04 05:26:43;;;;;;;8.70;8.20;;;4.50;99.90;;;;;;5012309;28;20184;-64
2021/12/04 05:29:09;;;;;;;8.90;8.33;;;4.50;99.90;;;;;;5014189;28;20218;-64
2021/12/04 05:31:35;;;;;;;9.40;8.90;;;4.50;99.90;;;;;;5012192;28;20250;-64
2021/12/04 05:34:00;;;;;;;8.80;8.10;;;4.50;99.90;;;;;;5022948;28;20210;-63
2021/12/04 05:36:26;;;;;;;8.40;7.87;;;4.60;99.90;;;;;;5031791;28;20314;-64
2021/12/04 05:38:52;;;;;;;8.70;8.10;;;4.60;99.90;;;;;;5021886;28;20191;-63
2021/12/04 05:41:18;;;;;;;8.87;8.27;;;4.60;99.90;;;;;;5012150;28;20183;-63
2021/12/04 05:43:43;;;;;;;7.93;7.53;;;4.60;99.90;;;;;;5015394;28;20199;-64
2021/12/04 05:46:15;;;;;;;9.03;8.53;;;4.60;99.90;;;;;;5019888;28;20314;-64
2021/12/04 05:51:22;;;;;;;9.20;8.50;;;4.60;99.90;;;;;;5017895;28;20192;-64
2021/12/04 05:56:14;;;;;;;9.10;8.50;;;4.60;99.90;;;;;;5025401;28;20176;-64
2021/12/04 05:58:40;;;;;;;8.60;8.10;;;4.60;99.90;;;;;;5011658;28;20175;-63
2021/12/04 06:01:07;;;;;;;9.10;8.53;;;4.60;99.90;;;;;;5015742;28;20190;-64
2021/12/04 06:03:33;;;;;;;9.87;9.30;;;4.60;99.90;;;;;;5030912;28;20517;-64
2021/12/04 06:05:59;;;;;;;10.10;9.53;;;4.60;99.90;;;;;;5027077;28;20203;-63
2021/12/04 06:08:25;;;;;;;10.10;9.50;;;4.60;99.90;;;;;;5011512;28;20176;-64
2021/12/04 06:10:52;;;;;;;9.80;9.20;;;4.60;99.90;;;;;;5012187;28;20576;-63
2021/12/04 06:13:18;;;;;;;9.87;9.23;;;4.60;99.90;;;;;;5031213;28;20248;-64
2021/12/04 06:15:43;;;;;;;9.23;8.63;;;4.60;99.90;;;;;;5035142;28;20617;-64
2021/12/04 06:18:10;;;;;;;8.80;8.30;;;4.60;99.90;;;;;;5027356;28;20241;-64
2021/12/04 06:23:21;;;;;;;8.83;8.33;;;4.70;99.90;;;;;;4995439;28;20195;-64
2021/12/04 06:25:47;;;;;;;8.87;8.27;;;4.70;99.90;;;;;;5028340;28;20203;-65
2021/12/04 06:28:14;;;;;;;8.70;8.13;;;4.70;99.90;;;;;;5035317;28;20175;-64
2021/12/04 06:30:42;;;;;;;8.50;7.93;;;4.70;99.90;;;;;;5020287;28;20242;-64
2021/12/04 06:33:09;;;;;;;9.50;8.70;;;4.70;99.90;;;;;;5014987;28;20218;-63
2021/12/04 06:35:39;;;;;;;9.27;8.77;;;4.70;99.90;;;;;;5027995;28;20265;-65
2021/12/04 06:38:05;;;;;;;8.80;8.30;;;4.70;99.90;;;;;;5034888;28;20171;-65
2021/12/04 06:40:30;;;;;;;8.60;8.07;;;4.70;99.90;;;;;;5021255;28;20184;-64
2021/12/04 06:42:59;;;;;;;9.13;8.53;;;4.70;99.90;;;;;;5014689;28;20567;-64
2021/12/04 06:45:26;;;;;;;8.70;8.17;;;4.70;99.90;;;;;;5025466;28;20596;-64
2021/12/04 06:48:01;;;;;;;8.83;8.23;;;4.70;99.90;;;;;;5034716;28;20526;-64
2021/12/04 06:52:59;;;;;;;8.97;8.40;;;4.70;99.90;;;;;;5021426;28;20561;-64
2021/12/04 06:55:29;;;;;;;9.30;8.60;;;4.70;99.90;;;;;;5027664;28;20196;-65
2021/12/04 06:57:55;;;;;;;9.47;8.87;;;4.70;99.90;;;;;;5014711;28;20642;-64
2021/12/04 07:00:21;;;;;;;8.43;7.87;;;4.70;99.90;;;;;;5019518;28;20187;-63
2021/12/04 07:02:46;;;;;;;8.40;7.90;;;4.70;99.90;;;;;;5034161;28;20179;-64
2021/12/04 07:05:12;;;;;;;9.33;8.53;;;4.70;99.90;;;;;;5031189;28;20559;-64
2021/12/04 07:07:37;;;;;;;9.43;8.63;;;4.70;99.90;;;;;;5014689;28;20180;-65
2021/12/04 07:10:04;;;;;;;8.77;8.17;;;4.70;99.90;;;;;;5015585;28;20208;-64
2021/12/04 07:12:29;;;;;;;9.60;8.90;;;4.70;99.90;;;;;;5032649;28;20187;-64
2021/12/04 07:14:55;;;;;;;9.47;8.77;;;4.70;99.90;;;;;;5024182;28;20219;-63
2021/12/04 07:17:21;;;;;;;9.13;8.60;;;4.70;99.90;;;;;;5013843;28;20183;-62
2021/12/04 07:19:46;;;;;;;8.80;8.20;;;4.70;99.90;;;;;;5021069;28;20265;-64
2021/12/04 07:22:12;;;;;;;10.17;9.47;;;4.70;99.90;;;;;;5033525;28;20191;-64
2021/12/04 07:24:38;;;;;;;9.80;9.00;;;4.70;99.90;;;;;;5026867;28;20657;-64
2021/12/04 07:27:05;;;;;;;9.33;8.73;;;4.70;99.90;;;;;;5011552;28;20175;-65
2021/12/04 07:29:31;;;;;;;9.67;9.07;;;4.70;99.90;;;;;;5017499;28;20182;-64
2021/12/04 07:31:57;;;;;;;10.77;9.90;;;4.70;99.90;;;;;;5033832;28;20175;-66
2021/12/04 07:34:23;;;;;;;9.80;8.80;;;4.70;99.90;;;;;;5018887;28;20274;-64
2021/12/04 07:36:49;;;;;;;9.53;8.93;;;4.70;99.90;;;;;;5033568;28;20180;-64
2021/12/04 07:39:15;;;;;;;9.70;9.00;;;4.80;99.90;;;;;;5032575;28;20258;-64
2021/12/04 07:41:42;;;;;;;9.60;8.90;;;4.70;99.90;;;;;;5013561;28;20184;-65
2021/12/04 07:44:09;;;;;;;9.47;8.87;;;4.70;99.90;;;;;;5013200;28;20282;-63
2021/12/04 07:46:37;;;;;;;8.97;8.30;;;4.70;99.90;;;;;;5012841;28;20208;-64
2021/12/04 07:49:03;;;;;;;9.80;9.00;;;4.70;99.90;;;;;;5015409;28;20196;-65
2021/12/04 07:51:29;;;;;;;9.23;8.57;;;4.80;99.90;;;;;;5013229;28;20234;-64
2021/12/04 07:53:54;;;;;;;9.87;9.17;;;4.80;99.90;;;;;;5026605;28;20206;-64
2021/12/04 07:56:20;;;;;;;10.50;9.70;;;4.80;99.90;;;;;;5033346;28;20384;-64
2021/12/04 07:58:45;;;;;;;10.10;9.50;;;4.80;99.90;;;;;;5020398;28;20184;-64
2021/12/04 08:01:11;;;;;;;10.03;9.20;;;4.80;99.90;;;;;;5012225;28;20176;-64
2021/12/04 08:03:37;;;;;;;9.57;8.87;;;4.80;99.90;;;;;;5023023;28;20196;-64
2021/12/04 08:06:04;;;;;;;10.13;9.33;;;4.90;99.90;;;;;;5033104;28;20206;-64
2021/12/04 08:08:30;;;;;;;9.60;8.80;;;4.90;99.90;;;;;;5024329;28;20517;-64
2021/12/04 08:10:56;;;;;;;9.53;8.73;;;4.80;99.90;;;;;;5013016;28;20187;-63
2021/12/04 08:13:22;;;;;;;10.57;9.87;;;4.80;99.90;;;;;;5018541;28;20210;-64
2021/12/04 08:15:47;;;;;;;11.23;10.43;;;4.80;99.90;;;;;;5029866;28;20192;-63
2021/12/04 08:18:13;;;;;;;9.77;8.87;;;4.80;99.90;;;;;;5013476;28;20173;-64
2021/12/04 08:20:39;;;;;;;9.97;9.27;;;4.80;99.90;;;;;;5013309;28;20187;-63
2021/12/04 08:23:06;;;;;;;9.57;8.97;;;4.80;99.90;;;;;;5032013;28;20214;-64
2021/12/04 08:25:32;;;;;;;9.33;8.63;;;4.80;99.90;;;;;;5032230;28;20750;-63
2021/12/04 08:27:59;;;;;;;9.57;8.80;;;4.90;99.90;;;;;;5015284;28;20180;-64
2021/12/04 08:30:29;;;;;;;9.57;8.93;;;4.90;99.90;;;;;;5032777;28;20187;-63
2021/12/04 08:32:56;;;;;;;10.13;9.33;;;4.90;99.90;;;;;;5013557;28;20231;-63
2021/12/04 08:35:24;;;;;;;9.53;8.83;;;4.90;99.90;;;;;;5013355;28;20693;-64
2021/12/04 08:37:52;;;;;;;10.70;9.80;;;4.90;99.90;;;;;;5029140;28;20183;-64
2021/12/04 08:40:18;;;;;;;15.90;14.23;;;4.90;99.90;;;;;;5032468;28;20191;-63
2021/12/04 08:42:46;;;;;;;13.73;12.17;;;4.90;99.90;;;;;;5016075;28;20642;-64
2021/12/04 08:45:13;;;;;;;10.00;9.20;;;5.00;99.90;;;;;;5024136;28;20211;-64
2021/12/04 08:47:40;;;;;;;10.53;9.60;;;5.00;99.90;;;;;;5032052;28;20171;-64
2021/12/04 08:50:09;;;;;;;9.53;8.87;;;5.00;99.90;;;;;;5021746;28;20196;-64
2021/12/04 08:52:35;;;;;;;9.53;8.87;;;5.10;99.90;;;;;;5012341;28;20203;-64
2021/12/04 08:55:01;;;;;;;9.90;9.20;;;5.10;99.90;;;;;;5012374;28;20207;-64
2021/12/04 08:57:26;;;;;;;10.10;9.30;;;5.10;99.90;;;;;;5020795;28;20178;-63
2021/12/04 08:59:52;;;;;;;11.10;10.30;;;5.20;99.90;;;;;;5018225;28;20259;-64
2021/12/04 09:02:18;;;;;;;10.10;9.40;;;5.30;99.90;;;;;;5018722;28;20811;-64
2021/12/04 09:04:46;;;;;;;9.63;9.03;;;5.30;99.90;;;;;;5019077;28;20199;-65
2021/12/04 09:07:13;;;;;;;11.13;10.00;;;5.30;99.90;;;;;;5022302;28;20172;-64
2021/12/04 09:09:39;;;;;;;10.07;9.30;;;5.40;99.90;;;;;;5013270;28;20176;-63
2021/12/04 09:12:08;;;;;;;10.50;9.57;;;5.30;99.90;;;;;;5025370;28;20195;-64
2021/12/04 09:14:37;;;;;;;9.83;9.13;;;5.40;99.90;;;;;;5019683;28;20311;-64
2021/12/04 09:17:06;;;;;;;10.93;10.13;;;5.40;99.90;;;;;;5017086;28;20187;-64
2021/12/04 09:19:32;;;;;;;10.23;9.47;;;5.50;99.90;;;;;;5029903;28;20171;-64
2021/12/04 09:21:58;;;;;;;9.60;8.77;;;5.50;99.90;;;;;;5016685;28;20660;-65
2021/12/04 09:24:36;;;;;;;10.53;9.63;;;5.60;99.90;;;;;;5025283;28;20207;-64
2021/12/04 09:28:10;;;;;;;10.13;9.23;;;5.60;99.90;;;;;;5014305;28;20184;-64
2021/12/04 09:40:39;;;;;;;9.70;9.00;;;5.70;99.90;;;;;;5011077;28;20667;-64
2021/12/04 10:22:11;;;;;;;10.03;9.43;;;6.10;99.90;;;;;;4985019;28;20638;-64
2021/12/04 10:33:13;;;;;;;8.30;7.80;;;8.20;99.90;;;;;;5016288;28;20226;-65
2021/12/04 10:35:40;;;;;;;7.30;6.90;;;8.60;99.90;;;;;;5030659;28;20218;-65
2021/12/04 10:38:09;;;;;;;7.17;6.67;;;8.90;99.90;;;;;;5013576;28;20195;-65
2021/12/04 10:40:43;;;;;;;7.17;6.77;;;9.10;99.90;;;;;;5011285;28;20179;-65
2021/12/04 10:43:14;;;;;;;7.00;6.60;;;9.20;99.90;;;;;;5024616;28;20637;-64
2021/12/04 10:45:48;;;;;;;7.13;6.73;;;9.10;99.90;;;;;;5010964;28;20232;-65
2021/12/04 10:48:19;;;;;;;7.90;7.40;;;8.90;99.90;;;;;;5024269;28;20203;-65
2021/12/04 10:53:20;;;;;;;7.30;6.90;;;8.40;99.90;;;;;;5023890;28;20464;-65
2021/12/04 10:55:58;;;;;;;8.03;7.50;;;8.00;99.90;;;;;;5024188;28;20588;-64
2021/12/04 11:23:39;;;;;;;10.37;9.73;;;6.80;99.90;;;;;;5032742;28;20183;-64
2021/12/04 11:34:53;;;;;;;9.17;8.60;;;6.70;99.90;;;;;;5026731;28;20195;-62
2021/12/04 11:45:04;;;;;;;8.00;7.60;;;6.80;99.90;;;;;;5016886;28;20291;-65
2021/12/04 11:47:38;;;;;;;8.60;7.97;;;6.70;99.90;;;;;;5013730;28;20522;-64
2021/12/04 11:50:18;;;;;;;8.53;7.87;;;6.70;99.90;;;;;;5026671;28;20561;-65
2021/12/04 11:52:46;;;;;;;8.83;8.23;;;6.70;99.90;;;;;;5012550;28;20208;-64
2021/12/04 11:55:12;;;;;;;8.80;8.30;;;6.60;99.90;;;;;;5013817;28;20204;-63
2021/12/04 11:57:38;;;;;;;8.73;8.30;;;6.60;99.90;;;;;;5018386;28;20190;-64
2021/12/04 12:00:28;;;;;;;8.67;8.17;;;6.70;99.90;;;;;;5013171;28;20187;-63
2021/12/04 12:03:08;;;;;;;8.20;7.70;;;6.80;99.90;;;;;;5014200;28;20656;-63
2021/12/04 12:05:40;;;;;;;8.70;8.17;;;6.80;99.90;;;;;;5014543;28;20445;-65
2021/12/04 12:08:06;;;;;;;8.63;8.13;;;6.80;99.90;;;;;;5014356;28;20669;-63
2021/12/04 12:10:33;;;;;;;8.33;7.83;;;6.70;99.90;;;;;;5013075;28;20179;-64
2021/12/04 12:13:06;;;;;;;8.07;7.57;;;6.80;99.90;;;;;;5021209;28;20245;-64
2021/12/04 12:15:35;;;;;;;7.83;7.40;;;6.80;99.90;;;;;;5023061;28;20607;-65
2021/12/04 12:18:13;;;;;;;8.30;7.70;;;6.90;99.90;;;;;;5013797;28;20184;-64
2021/12/04 12:21:04;;;;;;;8.40;7.90;;;6.90;99.90;;;;;;5017283;28;20180;-64
2021/12/04 12:23:32;;;;;;;8.33;7.80;;;6.90;99.90;;;;;;5012144;28;20218;-64
2021/12/04 12:37:27;;;;;;;11.60;10.63;;;7.10;99.90;;;;;;4964680;28;20556;-63
2021/12/04 12:39:58;;;;;;;10.97;10.27;;;7.00;99.90;;;;;;5019734;28;20179;-65
2021/12/04 12:42:27;;;;;;;9.33;8.83;;;7.10;99.90;;;;;;5011011;28;20164;-64
2021/12/04 12:44:53;;;;;;;8.03;7.63;;;7.10;99.90;;;;;;5013504;28;20737;-64
2021/12/04 12:47:21;;;;;;;8.37;7.97;;;7.10;99.90;;;;;;5012898;28;20267;-64
2021/12/04 12:49:48;;;;;;;7.70;7.30;;;7.10;99.90;;;;;;5028411;28;20183;-64
2021/12/04 12:52:23;;;;;;;7.73;7.33;;;7.10;99.90;;;;;;5031496;28;20176;-64
2021/12/04 12:54:55;;;;;;;8.40;8.00;;;7.10;99.90;;;;;;5020801;28;20571;-64
2021/12/04 12:57:36;;;;;;;8.23;7.73;;;6.90;99.90;;;;;;5026335;28;20167;-64
2021/12/04 13:14:07;;;;;;;32.57;20.43;;;6.70;99.90;;;;;;5023810;28;20292;-64
2021/12/04 13:16:33;;;;;;;9.13;8.63;;;6.70;99.90;;;;;;5013294;28;20187;-64
2021/12/04 13:19:04;;;;;;;8.37;7.77;;;6.60;99.90;;;;;;5020766;28;20187;-64
2021/12/04 13:21:33;;;;;;;8.60;8.10;;;6.60;99.90;;;;;;5027325;28;20239;-65
2021/12/04 13:23:59;;;;;;;8.00;7.40;;;6.40;99.90;;;;;;5020919;28;20266;-64
2021/12/04 13:26:33;;;;;;;8.10;7.70;;;6.30;99.90;;;;;;5022032;28;20536;-64
2021/12/04 13:29:01;;;;;;;8.40;7.90;;;6.30;99.90;;;;;;5030990;28;20183;-65
2021/12/04 13:31:28;;;;;;;8.60;8.00;;;6.20;99.90;;;;;;5021248;28;20183;-65
2021/12/04 13:33:55;;;;;;;8.47;7.97;;;6.20;99.90;;;;;;5014473;28;20200;-65
2021/12/04 13:36:27;;;;;;;8.53;8.03;;;6.20;99.90;;;;;;5016581;28;20294;-65
2021/12/04 13:39:12;;;;;;;8.03;7.60;;;6.30;99.90;;;;;;5018151;28;20234;-66
2021/12/04 13:41:40;;;;;;;7.90;7.40;;;6.30;99.90;;;;;;5017535;28;20539;-63
2021/12/04 13:44:08;;;;;;;8.17;7.77;;;6.30;99.90;;;;;;5031047;28;20685;-65
2021/12/04 13:46:51;;;;;;;9.00;8.40;;;6.40;99.90;;;;;;5026786;28;20176;-65
2021/12/04 13:49:30;;;;;;;8.37;7.77;;;6.40;99.90;;;;;;5011663;28;20195;-65
2021/12/04 13:51:59;;;;;;;8.53;7.93;;;6.40;99.90;;;;;;5013290;28;20175;-65
2021/12/04 13:54:28;;;;;;;8.00;7.50;;;6.30;99.90;;;;;;5018267;28;20204;-65
2021/12/04 13:56:54;;;;;;;9.20;8.57;;;6.40;99.90;;;;;;5011368;28;20203;-65
2021/12/04 13:59:24;;;;;;;8.07;7.63;;;6.40;99.90;;;;;;5017885;28;20171;-65
2021/12/04 14:01:50;;;;;;;8.17;7.57;;;6.40;99.90;;;;;;5031025;28;20172;-65
2021/12/04 14:04:16;;;;;;;8.17;7.67;;;6.40;99.90;;;;;;5023911;28;20695;-65
2021/12/04 14:06:54;;;;;;;8.30;7.70;;;6.40;99.90;;;;;;5011597;28;20177;-65
2021/12/04 14:09:21;;;;;;;9.77;8.97;;;6.40;99.90;;;;;;5016730;28;20180;-64
2021/12/04 14:11:48;;;;;;;9.90;9.17;;;6.40;99.90;;;;;;5030670;28;20168;-65
2021/12/04 14:14:13;;;;;;;8.87;8.37;;;6.30;99.90;;;;;;5026533;28;20199;-65
2021/12/04 14:16:41;;;;;;;8.37;7.90;;;6.30;99.90;;;;;;5011399;28;20238;-65
2021/12/04 14:19:22;;;;;;;8.57;8.07;;;6.30;99.90;;;;;;5013569;28;20549;-65
2021/12/04 14:22:11;;;;;;;8.43;7.93;;;6.20;99.90;;;;;;5030805;28;20262;-66
2021/12/04 14:24:56;;;;;;;9.33;8.73;;;6.20;99.90;;;;;;5024648;28;20199;-66
2021/12/04 14:27:26;;;;;;;9.43;8.73;;;6.20;99.90;;;;;;5011309;28;20179;-66
2021/12/04 14:30:05;;;;;;;11.00;10.10;;;6.20;99.90;;;;;;5019759;28;20176;-66
2021/12/04 14:32:33;;;;;;;9.90;9.20;;;6.20;99.90;;;;;;5030869;28;20176;-66
2021/12/04 14:35:13;;;;;;;9.00;8.40;;;6.20;99.90;;;;;;5021632;28;20203;-65
2021/12/04 14:37:41;;;;;;;8.87;8.37;;;6.10;99.90;;;;;;5015098;28;20168;-65
2021/12/04 14:40:28;;;;;;;8.27;7.87;;;6.10;99.90;;;;;;5025479;28;20664;-64
2021/12/04 14:42:54;;;;;;;8.83;8.23;;;6.10;99.90;;;;;;5003108;28;20192;-65
2021/12/04 14:45:25;;;;;;;9.03;8.17;;;6.00;99.90;;;;;;5017716;28;20215;-66
2021/12/04 14:48:07;;;;;;;9.13;8.43;;;5.90;99.90;;;;;;5019141;28;20274;-65
2021/12/04 14:50:35;;;;;;;8.77;8.27;;;5.90;99.90;;;;;;5034690;28;20206;-66
2021/12/04 14:53:03;;;;;;;9.27;8.57;;;5.90;99.90;;;;;;5026905;28;20662;-66
2021/12/04 14:55:32;;;;;;;9.63;8.93;;;5.90;99.90;;;;;;5013307;28;20196;-65
2021/12/04 14:57:58;;;;;;;9.67;8.93;;;5.80;99.90;;;;;;5020320;28;20180;-65
2021/12/04 15:00:30;;;;;;;10.00;9.03;;;5.80;99.90;;;;;;5034093;28;20651;-66
2021/12/04 15:03:02;;;;;;;9.87;9.07;;;5.80;99.90;;;;;;5027727;28;20728;-66
2021/12/04 15:05:35;;;;;;;9.17;8.50;;;5.80;99.90;;;;;;5014384;28;20251;-66
2021/12/04 15:08:08;;;;;;;10.03;9.17;;;5.80;99.90;;;;;;5014888;28;20176;-66
2021/12/04 15:10:34;;;;;;;10.90;9.80;;;5.90;99.90;;;;;;5014586;28;20614;-66
2021/12/04 15:13:00;;;;;;;11.33;10.33;;;5.90;99.90;;;;;;5017690;28;20665;-65
2021/12/04 15:15:32;;;;;;;11.00;10.10;;;5.90;99.90;;;;;;5014214;28;20191;-66
2021/12/04 15:18:10;;;;;;;10.67;9.87;;;5.90;99.90;;;;;;5033376;28;20700;-66
2021/12/04 15:20:38;;;;;;;11.57;10.37;;;5.80;99.90;;;;;;5032918;28;20168;-65
2021/12/04 15:23:08;;;;;;;10.73;9.83;;;5.80;99.90;;;;;;5013756;28;20172;-65
2021/12/04 15:25:36;;;;;;;10.47;9.73;;;5.70;99.90;;;;;;5014171;28;20203;-65
2021/12/04 15:28:17;;;;;;;9.67;8.97;;;5.70;99.90;;;;;;4993926;28;20176;-64
2021/12/04 15:30:48;;;;;;;8.87;8.27;;;5.70;99.90;;;;;;4995336;28;20179;-66
2021/12/04 15:33:26;;;;;;;8.73;8.20;;;5.60;99.90;;;;;;5031777;28;20210;-66
2021/12/04 15:35:52;;;;;;;8.80;8.30;;;5.50;99.90;;;;;;5031658;28;20206;-66
2021/12/04 15:38:37;;;;;;;8.47;7.97;;;5.40;99.90;;;;;;5013577;28;20188;-65
2021/12/04 15:45:07;;;;;;;8.73;8.13;;;5.40;99.90;;;;;;5032723;28;20179;-66
2021/12/04 15:47:18;;;;;;;9.10;8.27;;;5.30;99.90;;;;;;5015047;28;20681;-66
2021/12/04 15:55:06;;;;;;;8.77;8.17;;;5.30;99.90;;;;;;5013110;28;20254;-66
2021/12/04 15:57:32;;;;;;;8.27;7.80;;;5.30;99.90;;;;;;5025166;28;20661;-66
2021/12/04 16:00:04;;;;;;;8.80;8.20;;;5.30;99.90;;;;;;5032679;28;20184;-66
2021/12/04 16:02:34;;;;;;;8.20;7.70;;;5.30;99.90;;;;;;5019593;28;20231;-66
2021/12/04 16:05:21;;;;;;;7.80;7.40;;;5.30;99.90;;;;;;5019280;28;20200;-66
2021/12/04 16:08:18;;;;;;;8.53;7.90;;;5.40;99.90;;;;;;5032879;28;20206;-66
2021/12/04 16:10:47;;;;;;;9.20;8.50;;;5.30;99.90;;;;;;5006984;28;20226;-65
2021/12/04 16:13:20;;;;;;;8.63;8.13;;;5.30;99.90;;;;;;5012502;28;20223;-65
2021/12/04 16:15:46;;;;;;;8.97;8.47;;;5.30;99.90;;;;;;5023600;28;20192;-64
2021/12/04 16:18:14;;;;;;;8.23;7.80;;;5.40;99.90;;;;;;5031698;28;20175;-65
2021/12/04 16:20:40;;;;;;;8.13;7.63;;;5.40;99.90;;;;;;5021432;28;20255;-63